Time;durP1;ratioP1;P1;durP2;ratioP2;P2;SDS_P1;SDS_P2;PMS_P1;PMS_P2;Temp;Humidity;BMP_temperature;BMP_pressure;BME280_temperature;BME280_humidity;BME280_pressure;Samples;Min_cycle;Max_cycle;Signal;HPM_P1;HPM_P2
2022/03/21 00:02:46;;;;;;;0.50;0.50;;;3.90;65.70;;;;;;5096668;28;20456;-65
2022/03/21 00:05:33;;;;;;;0.50;0.50;;;3.90;65.70;;;;;;5096379;28;20527;-65
2022/03/21 00:08:22;;;;;;;0.80;0.80;;;3.90;65.80;;;;;;5096271;28;20415;-65
2022/03/21 00:11:09;;;;;;;0.50;0.50;;;3.90;65.90;;;;;;5095000;28;20422;-65
2022/03/21 00:13:56;;;;;;;0.50;0.50;;;3.90;65.70;;;;;;5096338;28;21027;-66
2022/03/21 00:16:44;;;;;;;0.50;0.50;;;3.90;65.90;;;;;;5094554;28;20516;-67
2022/03/21 00:19:30;;;;;;;0.60;0.60;;;4.00;65.80;;;;;;5096252;28;20463;-67
2022/03/21 00:22:17;;;;;;;4.57;2.00;;;3.90;65.50;;;;;;5095674;28;20434;-66
2022/03/21 00:25:08;;;;;;;1.23;1.23;;;3.90;65.50;;;;;;5096152;28;20970;-66
2022/03/21 00:27:55;;;;;;;0.50;0.50;;;3.90;65.50;;;;;;5108071;28;20431;-66
2022/03/21 00:30:43;;;;;;;0.50;0.50;;;3.80;65.50;;;;;;5109740;28;20472;-66
2022/03/21 00:33:30;;;;;;;0.50;0.50;;;3.80;65.50;;;;;;5107450;28;20415;-66
2022/03/21 00:36:17;;;;;;;0.50;0.50;;;3.80;65.50;;;;;;5111430;28;20423;-66
2022/03/21 00:39:04;;;;;;;0.50;0.50;;;3.80;65.40;;;;;;5113414;28;20483;-66
2022/03/21 00:41:52;;;;;;;0.50;0.50;;;3.80;65.60;;;;;;5111222;28;20423;-65
2022/03/21 00:44:39;;;;;;;0.50;0.50;;;3.90;65.50;;;;;;5112817;28;20443;-66
2022/03/21 00:47:26;;;;;;;0.63;0.63;;;3.90;65.40;;;;;;5095379;28;20453;-66
2022/03/21 00:50:15;;;;;;;0.47;0.47;;;4.00;65.60;;;;;;5103475;28;20415;-66
2022/03/21 00:53:02;;;;;;;0.50;0.50;;;3.90;65.30;;;;;;5105336;28;20419;-66
2022/03/21 00:55:49;;;;;;;0.50;0.50;;;3.90;65.20;;;;;;5106978;28;20439;-65
2022/03/21 00:58:38;;;;;;;0.60;0.60;;;3.90;65.00;;;;;;5106354;28;20462;-65
2022/03/21 01:01:24;;;;;;;0.50;0.50;;;3.90;64.90;;;;;;5104965;28;20431;-66
2022/03/21 01:04:11;;;;;;;0.40;0.40;;;3.90;64.60;;;;;;5103231;28;20816;-66
2022/03/21 01:06:58;;;;;;;0.50;0.50;;;4.00;64.40;;;;;;5103998;28;20423;-67
2022/03/21 01:09:45;;;;;;;0.40;0.40;;;4.00;64.40;;;;;;5100930;28;20415;-66
2022/03/21 01:12:32;;;;;;;0.50;0.50;;;4.00;64.40;;;;;;5098047;28;20464;-66
2022/03/21 01:15:22;;;;;;;10.50;9.60;;;3.90;64.20;;;;;;5097247;28;20455;-65
2022/03/21 01:18:09;;;;;;;1.73;1.63;;;3.90;64.30;;;;;;5094692;28;20923;-65
2022/03/21 01:20:56;;;;;;;0.47;0.47;;;4.00;64.60;;;;;;5092682;28;20419;-65
2022/03/21 01:23:43;;;;;;;1.43;1.33;;;3.90;64.70;;;;;;5094232;28;20426;-65
2022/03/21 01:26:30;;;;;;;0.40;0.40;;;3.80;64.50;;;;;;5086609;28;20423;-65
2022/03/21 01:29:17;;;;;;;0.50;0.50;;;3.80;64.80;;;;;;5094431;28;20430;-66
2022/03/21 01:32:06;;;;;;;1.57;1.50;;;3.70;64.80;;;;;;5094369;28;20845;-67
2022/03/21 01:34:52;;;;;;;0.43;0.43;;;3.80;64.90;;;;;;5092774;28;20447;-65
2022/03/21 01:37:39;;;;;;;0.50;0.50;;;3.70;64.80;;;;;;5094459;28;20798;-64
2022/03/21 01:40:26;;;;;;;1.13;1.13;;;3.70;64.80;;;;;;5086177;28;20786;-66
2022/03/21 01:43:13;;;;;;;0.50;0.50;;;3.70;65.00;;;;;;5094038;28;20962;-66
2022/03/21 01:46:00;;;;;;;1.00;1.00;;;3.60;64.90;;;;;;5094055;28;20422;-65
2022/03/21 01:48:48;;;;;;;0.50;0.50;;;3.70;65.10;;;;;;5093912;28;20791;-65
2022/03/21 01:51:37;;;;;;;0.60;0.60;;;3.50;65.30;;;;;;5093789;28;20460;-67
2022/03/21 01:57:29;;;;;;;0.73;0.73;;;3.40;65.70;;;;;;5092585;28;20411;-66
2022/03/21 02:00:16;;;;;;;0.50;0.50;;;3.40;66.20;;;;;;5093053;28;20809;-66
2022/03/21 02:03:03;;;;;;;0.50;0.50;;;3.30;65.90;;;;;;5083230;28;20916;-64
2022/03/21 02:05:51;;;;;;;0.50;0.50;;;3.30;66.10;;;;;;5086927;28;20938;-66
2022/03/21 02:08:38;;;;;;;0.50;0.50;;;3.20;66.40;;;;;;5091895;28;20446;-66
2022/03/21 02:11:26;;;;;;;0.50;0.50;;;3.20;66.40;;;;;;5091562;28;20426;-65
2022/03/21 02:14:13;;;;;;;0.97;0.97;;;3.20;66.40;;;;;;5092079;28;20450;-66
2022/03/21 02:16:59;;;;;;;0.50;0.50;;;3.20;66.30;;;;;;5092079;28;20422;-66
2022/03/21 02:19:47;;;;;;;0.50;0.50;;;3.20;66.40;;;;;;5091628;28;20486;-65
2022/03/21 02:22:47;;;;;;;1.23;1.23;;;3.20;66.40;;;;;;5091526;28;20506;-65
2022/03/21 02:25:37;;;;;;;0.50;0.50;;;3.20;66.40;;;;;;5091571;28;20869;-65
2022/03/21 02:28:26;;;;;;;0.50;0.50;;;3.10;66.20;;;;;;5092111;28;20419;-65
2022/03/21 02:31:15;;;;;;;0.93;0.93;;;3.30;66.50;;;;;;5091692;28;20516;-65
2022/03/21 02:34:02;;;;;;;0.50;0.50;;;3.10;66.50;;;;;;5091937;28;20450;-64
2022/03/21 02:36:51;;;;;;;2.10;1.70;;;3.00;66.70;;;;;;5092319;28;20492;-64
2022/03/21 02:39:39;;;;;;;0.50;0.50;;;3.10;66.80;;;;;;5096556;28;20833;-64
2022/03/21 02:42:27;;;;;;;0.50;0.50;;;3.10;66.70;;;;;;5099034;28;20806;-65
2022/03/21 02:45:14;;;;;;;0.50;0.50;;;3.10;66.40;;;;;;5098444;28;20787;-65
2022/03/21 02:48:01;;;;;;;0.53;0.53;;;3.20;66.40;;;;;;5098425;28;20426;-65
2022/03/21 02:50:55;;;;;;;0.50;0.50;;;3.20;66.20;;;;;;5098187;28;20484;-66
2022/03/21 02:53:43;;;;;;;0.50;0.50;;;3.20;66.20;;;;;;5096802;28;20428;-66
2022/03/21 02:56:30;;;;;;;0.40;0.40;;;3.20;66.30;;;;;;5099493;28;20647;-66
2022/03/21 02:59:18;;;;;;;1.27;1.27;;;3.20;66.40;;;;;;5097969;28;20508;-66
2022/03/21 03:02:07;;;;;;;0.50;0.50;;;3.10;66.60;;;;;;5098393;28;20426;-66
2022/03/21 03:04:53;;;;;;;0.50;0.50;;;3.00;66.60;;;;;;5098852;28;20450;-65
2022/03/21 03:07:40;;;;;;;0.50;0.50;;;3.00;66.80;;;;;;5098851;28;20442;-64
2022/03/21 03:10:27;;;;;;;0.50;0.50;;;3.00;67.00;;;;;;5098677;28;20440;-64
2022/03/21 03:13:14;;;;;;;0.90;0.90;;;2.90;67.10;;;;;;5098451;28;20430;-64
2022/03/21 03:16:02;;;;;;;0.50;0.50;;;2.90;66.90;;;;;;5098263;28;20414;-65
2022/03/21 03:18:49;;;;;;;0.50;0.50;;;2.90;66.70;;;;;;5099376;28;20691;-66
2022/03/21 03:21:38;;;;;;;0.50;0.50;;;2.90;66.90;;;;;;5098671;28;20483;-66
2022/03/21 03:24:27;;;;;;;0.50;0.50;;;2.80;66.70;;;;;;5099007;28;20439;-66
2022/03/21 03:27:14;;;;;;;0.40;0.40;;;2.80;66.90;;;;;;5097186;28;20458;-66
2022/03/21 03:30:01;;;;;;;0.50;0.50;;;2.80;66.80;;;;;;5098057;28;20425;-65
2022/03/21 03:32:51;;;;;;;0.50;0.50;;;2.80;66.70;;;;;;5097543;28;20433;-66
2022/03/21 03:35:38;;;;;;;0.50;0.50;;;2.80;66.60;;;;;;5098047;28;20445;-66
2022/03/21 03:38:24;;;;;;;0.50;0.50;;;2.80;66.70;;;;;;5097667;28;20504;-67
2022/03/21 03:41:11;;;;;;;0.50;0.50;;;2.80;66.60;;;;;;5097671;28;20505;-66
2022/03/21 03:43:58;;;;;;;0.50;0.50;;;2.80;66.40;;;;;;5097789;28;20439;-67
2022/03/21 03:46:45;;;;;;;0.50;0.50;;;2.80;66.40;;;;;;5097856;28;20414;-66
2022/03/21 03:49:33;;;;;;;0.50;0.50;;;2.80;66.40;;;;;;5097766;28;20444;-65
2022/03/21 03:52:20;;;;;;;1.97;1.80;;;2.70;66.40;;;;;;5093943;28;20431;-66
2022/03/21 03:55:08;;;;;;;0.50;0.50;;;2.70;66.80;;;;;;5094394;28;20454;-66
2022/03/21 03:57:55;;;;;;;0.50;0.50;;;2.60;66.70;;;;;;5095245;28;21000;-67
2022/03/21 04:00:44;;;;;;;0.50;0.50;;;2.50;66.90;;;;;;5093778;28;20512;-65
2022/03/21 04:03:47;;;;;;;0.50;0.50;;;2.50;67.20;;;;;;5096989;28;20427;-66
2022/03/21 04:06:35;;;;;;;0.50;0.50;;;2.40;67.50;;;;;;5113571;28;20424;-66
2022/03/21 04:09:22;;;;;;;0.50;0.50;;;2.40;67.70;;;;;;5114752;28;20447;-67
2022/03/21 04:12:10;;;;;;;0.50;0.50;;;2.30;68.20;;;;;;5106625;28;20423;-66
2022/03/21 04:14:57;;;;;;;0.50;0.50;;;2.30;68.40;;;;;;5094624;28;20501;-67
2022/03/21 04:17:44;;;;;;;0.50;0.50;;;2.20;68.70;;;;;;5094446;28;20780;-67
2022/03/21 04:20:32;;;;;;;0.50;0.50;;;2.10;68.70;;;;;;5094937;28;20536;-65
2022/03/21 04:23:20;;;;;;;2.50;2.40;;;2.10;68.90;;;;;;5094172;28;20795;-65
2022/03/21 04:26:07;;;;;;;0.50;0.50;;;2.10;69.40;;;;;;5094248;28;20468;-65
2022/03/21 04:28:55;;;;;;;0.50;0.50;;;2.00;69.70;;;;;;5094469;28;20927;-65
2022/03/21 04:31:42;;;;;;;0.50;0.50;;;1.90;70.00;;;;;;5093645;28;20419;-65
2022/03/21 04:34:29;;;;;;;0.50;0.50;;;1.90;70.20;;;;;;5093136;28;20500;-64
2022/03/21 04:37:16;;;;;;;0.50;0.50;;;1.90;70.20;;;;;;5092875;28;20439;-65
2022/03/21 04:40:06;;;;;;;0.50;0.50;;;1.90;70.40;;;;;;5094018;28;20462;-65
2022/03/21 04:42:52;;;;;;;0.50;0.50;;;1.90;70.40;;;;;;5093221;28;20504;-65
2022/03/21 04:45:39;;;;;;;0.50;0.50;;;1.80;70.60;;;;;;5093916;28;20470;-64
2022/03/21 04:48:26;;;;;;;0.50;0.50;;;1.80;71.00;;;;;;5093746;28;20427;-64
2022/03/21 04:51:13;;;;;;;0.50;0.50;;;1.80;70.90;;;;;;5093705;28;20786;-66
2022/03/21 04:54:00;;;;;;;0.50;0.50;;;1.70;71.20;;;;;;5093720;28;20450;-66
2022/03/21 04:56:48;;;;;;;0.50;0.50;;;1.70;71.60;;;;;;5093698;28;20806;-64
2022/03/21 04:59:36;;;;;;;0.50;0.50;;;1.70;71.70;;;;;;5092287;28;20528;-65
2022/03/21 05:02:23;;;;;;;0.50;0.50;;;1.70;72.00;;;;;;5093209;28;20429;-66
2022/03/21 05:05:10;;;;;;;0.50;0.50;;;1.70;72.10;;;;;;5093526;28;21020;-64
2022/03/21 05:07:57;;;;;;;0.50;0.50;;;1.70;72.50;;;;;;5092898;28;20419;-65
2022/03/21 05:10:44;;;;;;;0.50;0.50;;;1.70;72.60;;;;;;5093264;28;20420;-65
2022/03/21 05:13:32;;;;;;;0.50;0.50;;;1.60;73.00;;;;;;5093252;28;20458;-65
2022/03/21 05:16:19;;;;;;;0.50;0.50;;;1.70;73.30;;;;;;5092859;28;20446;-65
2022/03/21 05:19:07;;;;;;;0.50;0.50;;;1.50;73.50;;;;;;5092561;28;20419;-64
2022/03/21 05:21:53;;;;;;;7.20;1.03;;;1.50;73.70;;;;;;5093206;28;20914;-66
2022/03/21 05:30:59;;;;;;;0.50;0.50;;;1.50;74.20;;;;;;5091927;28;20407;-66
2022/03/21 05:36:53;;;;;;;0.50;0.50;;;1.50;74.20;;;;;;5080490;28;20462;-65
2022/03/21 05:40:31;;;;;;;0.50;0.50;;;1.60;74.00;;;;;;5093012;28;20479;-65
2022/03/21 05:42:46;;;;;;;0.50;0.50;;;1.70;74.10;;;;;;5092065;28;20452;-65
2022/03/21 05:45:33;;;;;;;0.50;0.50;;;1.70;74.00;;;;;;5092961;28;20488;-65
2022/03/21 05:51:28;;;;;;;0.50;0.50;;;1.80;73.70;;;;;;5091699;28;20491;-65
2022/03/21 05:54:15;;;;;;;0.50;0.50;;;1.80;73.50;;;;;;5091530;28;20447;-65
2022/03/21 05:57:01;;;;;;;0.50;0.50;;;1.80;73.30;;;;;;5092839;28;20556;-65
2022/03/21 06:02:53;;;;;;;0.50;0.50;;;1.90;73.20;;;;;;5091326;28;20514;-66
2022/03/21 06:05:43;;;;;;;4.57;2.50;;;2.00;73.40;;;;;;5092418;28;20439;-66
2022/03/21 06:08:30;;;;;;;0.80;0.80;;;2.00;73.30;;;;;;5092366;28;20426;-64
2022/03/21 06:11:17;;;;;;;0.50;0.50;;;2.00;73.20;;;;;;5091461;28;20419;-64
2022/03/21 06:14:05;;;;;;;0.50;0.50;;;2.10;73.40;;;;;;5091726;28;20488;-65
2022/03/21 06:16:52;;;;;;;0.50;0.50;;;2.10;73.10;;;;;;5092087;28;20433;-65
2022/03/21 06:19:38;;;;;;;0.50;0.50;;;2.20;73.20;;;;;;5092331;28;20486;-66
2022/03/21 06:22:27;;;;;;;0.60;0.60;;;2.20;73.10;;;;;;5090929;28;20500;-66
2022/03/21 06:25:13;;;;;;;0.50;0.50;;;2.30;72.30;;;;;;5092060;28;20952;-66
2022/03/21 06:28:01;;;;;;;0.70;0.70;;;2.30;72.00;;;;;;5092233;28;20419;-66
2022/03/21 06:30:50;;;;;;;0.50;0.50;;;2.50;72.20;;;;;;5092328;28;20419;-65
2022/03/21 06:33:36;;;;;;;0.80;0.80;;;2.60;72.10;;;;;;5092632;28;20420;-65
2022/03/21 06:36:24;;;;;;;0.50;0.50;;;2.60;71.50;;;;;;5091447;28;20430;-65
2022/03/21 06:39:12;;;;;;;0.50;0.50;;;2.70;70.90;;;;;;5091242;28;20457;-65
2022/03/21 06:41:59;;;;;;;0.60;0.60;;;2.90;70.30;;;;;;5091580;28;20503;-65
2022/03/21 06:44:46;;;;;;;0.50;0.50;;;2.90;69.50;;;;;;5092068;28;20488;-64
2022/03/21 06:47:33;;;;;;;0.50;0.50;;;3.10;69.30;;;;;;5091977;28;20419;-65
2022/03/21 06:50:19;;;;;;;0.60;0.60;;;3.20;68.80;;;;;;5092222;28;20926;-65
2022/03/21 06:53:06;;;;;;;0.50;0.50;;;3.30;68.80;;;;;;5091403;28;20472;-65
2022/03/21 06:55:54;;;;;;;0.50;0.50;;;3.40;68.50;;;;;;5092663;28;20426;-65
2022/03/21 06:58:41;;;;;;;0.80;0.80;;;3.50;68.00;;;;;;5083690;28;20412;-65
2022/03/21 07:01:31;;;;;;;0.50;0.50;;;3.60;67.60;;;;;;5091391;28;20462;-65
2022/03/21 07:04:18;;;;;;;0.50;0.50;;;3.70;67.20;;;;;;5092239;28;20589;-65
2022/03/21 07:07:05;;;;;;;11.80;11.20;;;3.70;67.00;;;;;;5092599;28;20459;-65
2022/03/21 07:09:52;;;;;;;0.50;0.50;;;3.80;66.50;;;;;;5091785;28;20429;-65
2022/03/21 07:12:40;;;;;;;13.77;12.03;;;3.90;66.10;;;;;;5091860;28;20453;-66
2022/03/21 07:15:28;;;;;;;0.50;0.50;;;4.00;65.90;;;;;;5091751;28;20457;-66
2022/03/21 07:18:15;;;;;;;0.70;0.70;;;4.10;66.00;;;;;;5091726;28;20427;-65
2022/03/21 07:21:02;;;;;;;1.23;1.23;;;4.20;65.30;;;;;;5095420;28;20462;-66
2022/03/21 07:23:49;;;;;;;0.60;0.60;;;4.30;65.20;;;;;;5091929;28;20493;-65
2022/03/21 07:26:37;;;;;;;0.47;0.47;;;4.40;64.50;;;;;;5094436;28;20945;-65
2022/03/21 07:29:26;;;;;;;0.50;0.50;;;4.40;64.60;;;;;;5095212;28;20418;-66
2022/03/21 07:32:14;;;;;;;10.60;6.33;;;4.50;64.30;;;;;;5094567;28;20421;-67
2022/03/21 07:35:00;;;;;;;0.50;0.50;;;4.70;64.00;;;;;;5095156;28;20816;-66
2022/03/21 07:37:50;;;;;;;0.70;0.70;;;4.80;63.80;;;;;;5093851;28;20415;-68
2022/03/21 07:40:37;;;;;;;0.60;0.60;;;4.90;63.50;;;;;;5095177;28;20462;-65
2022/03/21 07:43:24;;;;;;;0.50;0.50;;;4.90;63.20;;;;;;5094582;28;20433;-67
2022/03/21 07:49:17;;;;;;;1.17;1.17;;;5.10;63.00;;;;;;5095369;28;20506;-66
2022/03/21 07:52:04;;;;;;;0.70;0.70;;;5.30;62.90;;;;;;5094903;28;20418;-67
2022/03/21 07:54:54;;;;;;;0.60;0.60;;;5.40;62.60;;;;;;5094959;28;20969;-65
2022/03/21 07:57:41;;;;;;;3.43;3.07;;;5.40;62.40;;;;;;5094978;28;20508;-65
2022/03/21 08:00:30;;;;;;;0.50;0.50;;;5.50;62.30;;;;;;5094103;28;20997;-66
2022/03/21 08:03:19;;;;;;;0.50;0.50;;;5.60;62.10;;;;;;5094819;28;20942;-66
2022/03/21 08:06:10;;;;;;;2.00;1.80;;;5.70;62.30;;;;;;5093637;28;20414;-66
2022/03/21 08:08:57;;;;;;;0.50;0.50;;;5.80;61.80;;;;;;5094624;28;20427;-66
2022/03/21 08:11:45;;;;;;;0.50;0.50;;;5.90;61.40;;;;;;5094603;28;20427;-66
2022/03/21 08:14:32;;;;;;;1.80;1.20;;;6.10;59.70;;;;;;5094433;28;20467;-67
2022/03/21 08:17:19;;;;;;;0.50;0.50;;;6.20;59.10;;;;;;5094105;28;20504;-66
2022/03/21 08:20:10;;;;;;;1.13;1.13;;;6.30;58.40;;;;;;5093942;28;20422;-65
2022/03/21 08:22:57;;;;;;;0.50;0.50;;;6.40;58.20;;;;;;5094045;28;20430;-66
2022/03/21 08:25:46;;;;;;;0.50;0.50;;;6.50;57.70;;;;;;5092869;28;20989;-65
2022/03/21 08:28:33;;;;;;;5.60;1.53;;;6.60;57.40;;;;;;5094672;28;20855;-65
2022/03/21 08:31:20;;;;;;;0.50;0.50;;;6.80;57.40;;;;;;5094176;28;20527;-65
2022/03/21 08:34:07;;;;;;;0.50;0.50;;;6.80;57.40;;;;;;5093508;28;20555;-65
2022/03/21 08:36:55;;;;;;;0.90;0.90;;;6.90;57.00;;;;;;5093463;28;20422;-67
2022/03/21 08:39:42;;;;;;;0.50;0.50;;;7.00;57.50;;;;;;5101841;28;20471;-65
2022/03/21 08:42:29;;;;;;;0.50;0.50;;;7.00;57.50;;;;;;5095990;28;20929;-66
2022/03/21 08:45:16;;;;;;;0.80;0.80;;;7.10;57.10;;;;;;5109579;28;20544;-65
2022/03/21 08:48:03;;;;;;;0.50;0.50;;;7.20;57.10;;;;;;5096391;28;20546;-65
2022/03/21 08:50:50;;;;;;;0.50;0.50;;;7.20;56.80;;;;;;5100528;28;20454;-66
2022/03/21 08:53:38;;;;;;;1.00;1.00;;;7.30;56.90;;;;;;5105178;28;20791;-65
2022/03/21 08:56:28;;;;;;;0.93;0.90;;;7.40;56.40;;;;;;5118222;28;20422;-66
2022/03/21 08:59:15;;;;;;;0.80;0.80;;;7.50;56.20;;;;;;5104876;28;20528;-67
2022/03/21 09:02:03;;;;;;;0.73;0.73;;;7.60;56.20;;;;;;5104442;28;20485;-67
2022/03/21 09:04:50;;;;;;;0.50;0.50;;;7.60;55.80;;;;;;5103095;28;20958;-67
2022/03/21 09:07:37;;;;;;;0.63;0.63;;;7.70;55.80;;;;;;5103872;28;20987;-67
2022/03/21 09:10:25;;;;;;;0.70;0.60;;;7.80;55.90;;;;;;5107049;28;20500;-66
2022/03/21 09:13:11;;;;;;;0.50;0.50;;;7.90;55.20;;;;;;5107340;28;20865;-66
2022/03/21 09:15:58;;;;;;;0.93;0.93;;;7.90;55.10;;;;;;5109502;28;20453;-66
2022/03/21 09:18:45;;;;;;;0.80;0.80;;;8.00;55.40;;;;;;5110958;28;20451;-67
2022/03/21 09:21:32;;;;;;;0.50;0.50;;;8.00;55.90;;;;;;5113456;28;20518;-67
2022/03/21 09:24:19;;;;;;;0.80;0.80;;;8.10;55.70;;;;;;5094201;28;20465;-65
2022/03/21 09:27:08;;;;;;;0.70;0.70;;;8.20;56.00;;;;;;5103271;28;20418;-66
2022/03/21 09:29:56;;;;;;;0.67;0.67;;;8.20;55.60;;;;;;5102707;28;20506;-65
2022/03/21 09:32:43;;;;;;;0.50;0.50;;;8.20;55.80;;;;;;5088435;28;20473;-65
2022/03/21 09:35:29;;;;;;;0.40;0.40;;;8.30;55.90;;;;;;5104059;28;20821;-66
2022/03/21 09:38:17;;;;;;;0.70;0.70;;;8.40;55.90;;;;;;5093049;28;20423;-67
2022/03/21 09:41:05;;;;;;;2.20;2.10;;;8.30;56.10;;;;;;5092371;28;21032;-66
2022/03/21 09:43:54;;;;;;;1.60;1.50;;;8.30;56.20;;;;;;5093193;28;20446;-67
2022/03/21 09:46:43;;;;;;;0.50;0.50;;;8.40;56.10;;;;;;5092495;28;20419;-67
2022/03/21 09:49:30;;;;;;;0.50;0.50;;;8.50;56.20;;;;;;5089914;28;20512;-68
2022/03/21 09:52:19;;;;;;;1.33;1.23;;;8.60;56.40;;;;;;5088555;28;20446;-66
2022/03/21 09:55:07;;;;;;;1.10;1.07;;;8.70;56.20;;;;;;5095261;28;20454;-66
2022/03/21 09:57:54;;;;;;;0.50;0.50;;;8.70;56.20;;;;;;5091825;28;20423;-68
2022/03/21 10:00:44;;;;;;;1.13;0.73;;;8.90;56.00;;;;;;5100283;28;21246;-67
2022/03/21 10:03:33;;;;;;;5.10;2.20;;;8.90;55.70;;;;;;5111796;28;20422;-66
2022/03/21 10:06:27;;;;;;;0.87;0.87;;;9.00;54.80;;;;;;5099748;28;20986;-67
2022/03/21 10:09:16;;;;;;;0.60;0.60;;;9.10;54.00;;;;;;5097291;28;20503;-67
2022/03/21 10:12:03;;;;;;;1.13;0.90;;;9.10;54.30;;;;;;5090867;28;20954;-68
2022/03/21 10:14:55;;;;;;;0.60;0.60;;;9.20;53.90;;;;;;5096368;28;20457;-66
2022/03/21 10:17:43;;;;;;;0.50;0.50;;;9.30;53.30;;;;;;5071623;28;20787;-66
2022/03/21 10:20:33;;;;;;;1.07;0.97;;;9.30;53.50;;;;;;5095172;28;20419;-66
2022/03/21 10:23:22;;;;;;;0.50;0.50;;;9.40;53.10;;;;;;5103539;28;20480;-66
2022/03/21 10:26:26;;;;;;;0.83;0.83;;;9.30;52.80;;;;;;5095563;28;20500;-68
2022/03/21 10:29:13;;;;;;;0.60;0.60;;;9.40;52.70;;;;;;5096004;28;20426;-67
2022/03/21 10:32:00;;;;;;;0.50;0.50;;;9.50;52.70;;;;;;5090774;28;20472;-65
2022/03/21 10:35:00;;;;;;;0.70;0.60;;;9.50;52.50;;;;;;5091266;28;20474;-65
2022/03/21 10:37:50;;;;;;;0.40;0.40;;;9.60;52.50;;;;;;5099743;28;20507;-67
2022/03/21 10:40:44;;;;;;;0.60;0.60;;;9.70;52.30;;;;;;5111220;28;20503;-66
2022/03/21 10:43:31;;;;;;;0.50;0.50;;;9.80;52.20;;;;;;5110680;28;20848;-65
2022/03/21 10:46:22;;;;;;;3.13;1.13;;;9.80;52.40;;;;;;5111470;28;20418;-66
2022/03/21 10:49:10;;;;;;;0.60;0.60;;;9.90;52.60;;;;;;5112251;28;20775;-67
2022/03/21 10:51:59;;;;;;;2.60;2.50;;;10.00;51.90;;;;;;5099119;28;20426;-67
2022/03/21 10:54:48;;;;;;;0.60;0.60;;;10.10;51.60;;;;;;5090942;28;20504;-68
2022/03/21 10:57:37;;;;;;;1.33;1.33;;;10.00;51.30;;;;;;5090783;28;20426;-66
2022/03/21 11:00:26;;;;;;;0.40;0.40;;;10.10;51.30;;;;;;5093090;28;20430;-67
2022/03/21 11:03:15;;;;;;;0.50;0.50;;;10.20;51.70;;;;;;5094311;28;20498;-66
2022/03/21 11:06:03;;;;;;;0.60;0.60;;;10.20;51.70;;;;;;5094838;28;20423;-67
2022/03/21 11:08:54;;;;;;;0.50;0.50;;;10.30;51.20;;;;;;5102058;28;20415;-66
2022/03/21 11:11:41;;;;;;;0.97;0.97;;;10.40;50.30;;;;;;5102422;28;20407;-68
2022/03/21 11:14:29;;;;;;;0.70;0.70;;;10.50;50.60;;;;;;5101866;28;20494;-66
2022/03/21 11:17:17;;;;;;;0.50;0.50;;;10.60;50.00;;;;;;5100271;28;20466;-65
2022/03/21 11:20:05;;;;;;;0.70;0.70;;;10.60;50.00;;;;;;5095338;28;20438;-67
2022/03/21 11:22:55;;;;;;;1.43;1.33;;;10.70;49.80;;;;;;5094879;28;20502;-68
2022/03/21 11:25:50;;;;;;;0.40;0.40;;;10.80;49.60;;;;;;5094642;28;20526;-68
2022/03/21 11:29:10;;;;;;;0.40;0.40;;;10.90;49.50;;;;;;5110814;28;20432;-69
2022/03/21 11:32:24;;;;;;;6.80;2.30;;;10.90;49.20;;;;;;5114624;28;20418;-69
2022/03/21 11:35:14;;;;;;;0.73;0.73;;;10.90;49.40;;;;;;5075070;28;20528;-66
2022/03/21 11:38:22;;;;;;;0.50;0.50;;;11.00;49.10;;;;;;5087059;28;20513;-67
2022/03/21 11:41:14;;;;;;;1.70;1.33;;;11.00;49.40;;;;;;5096457;28;20551;-67
2022/03/21 11:44:14;;;;;;;0.40;0.40;;;11.10;48.60;;;;;;5094412;28;20445;-67
2022/03/21 11:47:24;;;;;;;0.43;0.43;;;11.10;48.50;;;;;;5094489;28;20813;-67
2022/03/21 11:50:26;;;;;;;0.87;0.87;;;11.10;48.50;;;;;;5094295;28;20422;-69
2022/03/21 11:53:14;;;;;;;0.40;0.40;;;11.20;48.50;;;;;;5094062;28;20411;-68
2022/03/21 11:56:02;;;;;;;0.40;0.40;;;11.20;49.20;;;;;;5094309;28;20427;-68
2022/03/21 11:58:50;;;;;;;0.70;0.70;;;11.30;48.50;;;;;;5094448;28;20448;-67
2022/03/21 12:01:37;;;;;;;0.50;0.50;;;11.40;48.60;;;;;;5094189;28;20562;-66
2022/03/21 12:04:28;;;;;;;0.40;0.40;;;11.50;47.90;;;;;;5096264;28;20481;-67
2022/03/21 12:07:28;;;;;;;0.40;0.40;;;11.50;48.00;;;;;;5097162;28;20852;-67
2022/03/21 12:10:37;;;;;;;0.40;0.40;;;11.70;48.00;;;;;;5095012;28;20410;-68
2022/03/21 12:13:24;;;;;;;1.07;0.77;;;11.80;48.00;;;;;;5093378;28;20422;-68
2022/03/21 12:16:19;;;;;;;0.73;0.73;;;11.80;47.90;;;;;;5094081;28;21020;-67
2022/03/21 12:19:06;;;;;;;0.40;0.40;;;11.90;47.40;;;;;;5094017;28;20427;-66
2022/03/21 12:22:26;;;;;;;1.70;1.63;;;11.90;47.80;;;;;;5093517;28;20605;-67
2022/03/21 12:25:20;;;;;;;0.80;0.80;;;11.90;47.60;;;;;;5094347;28;21035;-65
2022/03/21 12:28:19;;;;;;;0.40;0.40;;;12.00;47.70;;;;;;5105168;28;21122;-67
2022/03/21 12:31:23;;;;;;;3.17;1.27;;;12.10;47.10;;;;;;5111261;28;20434;-66
2022/03/21 12:34:39;;;;;;;1.17;1.17;;;12.10;47.10;;;;;;5073292;28;20447;-66
2022/03/21 12:37:41;;;;;;;1.07;0.97;;;12.20;47.00;;;;;;5101937;28;20958;-66
2022/03/21 12:40:28;;;;;;;0.87;0.83;;;12.20;46.90;;;;;;5114136;28;20508;-67
2022/03/21 12:43:16;;;;;;;1.17;0.93;;;12.20;46.60;;;;;;5114063;28;20468;-67
2022/03/21 12:46:12;;;;;;;3.63;1.60;;;12.30;46.50;;;;;;5114316;28;20421;-66
2022/03/21 12:49:01;;;;;;;0.77;0.77;;;12.30;46.40;;;;;;5114262;28;20446;-67
2022/03/21 12:51:56;;;;;;;3.40;3.30;;;12.30;46.60;;;;;;5114192;28;20420;-65
2022/03/21 12:54:47;;;;;;;2.53;2.33;;;12.40;46.40;;;;;;5113985;28;20481;-67
2022/03/21 12:57:53;;;;;;;0.60;0.60;;;12.50;45.60;;;;;;5114180;28;20421;-68
2022/03/21 13:00:42;;;;;;;0.50;0.50;;;12.40;45.60;;;;;;5113848;28;20457;-66
2022/03/21 13:03:29;;;;;;;0.40;0.40;;;12.70;46.10;;;;;;5107104;28;20512;-66
2022/03/21 13:12:26;;;;;;;0.70;0.70;;;13.60;46.20;;;;;;5091819;28;20419;-65
2022/03/21 13:15:13;;;;;;;0.67;0.50;;;14.00;45.20;;;;;;5100906;28;20474;-66
2022/03/21 13:18:01;;;;;;;1.27;1.20;;;14.50;44.60;;;;;;5103152;28;20426;-67
2022/03/21 13:20:49;;;;;;;0.40;0.40;;;14.80;44.40;;;;;;5098109;28;20423;-67
2022/03/21 13:23:38;;;;;;;0.40;0.40;;;15.60;44.90;;;;;;5093863;28;20887;-66
2022/03/21 13:26:26;;;;;;;0.80;0.80;;;16.60;42.90;;;;;;5092536;28;20204;-68
2022/03/21 13:29:14;;;;;;;1.25;1.25;;;17.90;42.30;;;;;;5072030;28;20610;-68
2022/03/21 13:32:02;;;;;;;0.40;0.40;;;19.00;40.70;;;;;;5094212;28;20197;-68
2022/03/21 13:34:50;;;;;;;0.70;0.70;;;19.80;40.60;;;;;;5101940;28;20212;-65
2022/03/21 13:37:37;;;;;;;0.40;0.40;;;20.60;40.20;;;;;;5096580;28;20201;-67
2022/03/21 13:40:27;;;;;;;3.22;3.03;;;21.90;39.30;;;;;;5101645;28;20583;-65
2022/03/21 13:43:19;;;;;;;0.40;0.40;;;22.60;37.70;;;;;;5110269;28;20263;-65
2022/03/21 13:46:06;;;;;;;0.50;0.50;;;23.20;36.90;;;;;;5107414;28;20233;-66
2022/03/21 13:48:54;;;;;;;0.50;0.50;;;23.20;36.10;;;;;;5106974;28;20207;-69
2022/03/21 13:51:43;;;;;;;0.88;0.88;;;23.70;36.40;;;;;;5099575;28;20193;-68
2022/03/21 13:54:49;;;;;;;0.50;0.50;;;23.70;35.00;;;;;;5101650;28;20228;-66
2022/03/21 13:57:45;;;;;;;0.40;0.40;;;24.00;34.90;;;;;;5102206;28;20265;-67
2022/03/21 14:00:35;;;;;;;0.95;0.95;;;24.50;34.30;;;;;;5100027;28;20699;-65
2022/03/21 14:03:33;;;;;;;0.50;0.50;;;25.10;34.10;;;;;;5099885;28;20242;-68
2022/03/21 14:06:21;;;;;;;1.02;1.02;;;25.40;33.20;;;;;;5071595;28;20200;-67
2022/03/21 14:09:08;;;;;;;0.40;0.40;;;24.70;32.70;;;;;;5092702;28;20207;-66
2022/03/21 14:12:06;;;;;;;0.70;0.68;;;24.80;33.10;;;;;;5100087;28;20196;-66
2022/03/21 14:14:54;;;;;;;0.40;0.40;;;25.10;32.80;;;;;;5101710;28;20220;-67
2022/03/21 14:17:42;;;;;;;0.50;0.50;;;25.60;32.60;;;;;;5099027;28;20687;-67
2022/03/21 14:20:29;;;;;;;0.40;0.40;;;25.20;32.10;;;;;;5098219;28;20707;-66
2022/03/21 14:23:16;;;;;;;1.08;0.98;;;25.00;32.10;;;;;;5091343;28;20693;-67
2022/03/21 14:29:10;;;;;;;1.25;1.13;;;25.00;31.90;;;;;;5071402;28;20680;-67
2022/03/21 14:31:58;;;;;;;0.50;0.50;;;25.40;31.50;;;;;;5070744;28;20273;-67
2022/03/21 14:34:45;;;;;;;0.65;0.65;;;25.90;30.50;;;;;;5069964;28;20286;-66
2022/03/21 14:37:32;;;;;;;0.50;0.50;;;26.20;30.30;;;;;;5070967;28;20197;-67
2022/03/21 14:40:19;;;;;;;1.58;1.52;;;26.10;30.00;;;;;;5070749;28;20272;-67
2022/03/21 14:43:06;;;;;;;0.80;0.80;;;25.10;29.60;;;;;;5071287;28;20220;-67
2022/03/21 14:45:53;;;;;;;4.60;1.88;;;24.70;29.70;;;;;;5072505;28;20197;-67
2022/03/21 14:48:42;;;;;;;0.40;0.40;;;24.40;29.90;;;;;;5072279;28;20197;-67
2022/03/21 14:51:31;;;;;;;2.17;2.00;;;23.70;30.20;;;;;;5071480;28;20573;-65
2022/03/21 14:54:18;;;;;;;0.40;0.40;;;23.10;30.70;;;;;;5070340;28;20213;-67
2022/03/21 14:57:05;;;;;;;1.95;1.85;;;22.40;30.90;;;;;;5073903;28;20265;-67
2022/03/21 14:59:52;;;;;;;0.40;0.40;;;22.20;31.00;;;;;;5091481;28;20200;-69
2022/03/21 15:02:39;;;;;;;0.50;0.50;;;22.10;31.10;;;;;;5090123;28;20597;-68
2022/03/21 15:05:29;;;;;;;0.82;0.82;;;21.50;31.10;;;;;;5091020;28;20313;-68
2022/03/21 15:08:15;;;;;;;0.47;0.47;;;20.70;31.80;;;;;;5090679;28;20665;-67
2022/03/21 15:11:03;;;;;;;0.40;0.40;;;20.30;32.70;;;;;;5090006;28;20289;-66
2022/03/21 15:13:50;;;;;;;0.40;0.40;;;20.00;32.60;;;;;;5090591;28;20684;-71
2022/03/21 15:16:40;;;;;;;0.52;0.52;;;19.30;32.80;;;;;;5090589;28;20205;-66
2022/03/21 15:19:27;;;;;;;3.22;3.05;;;18.90;33.00;;;;;;5090414;28;20201;-68